Time;durP1;ratioP1;P1;durP2;ratioP2;P2;SDS_P1;SDS_P2;PMS_P1;PMS_P2;Temp;Humidity;BMP_temperature;BMP_pressure;BME280_temperature;BME280_humidity;BME280_pressure;Samples;Min_cycle;Max_cycle;Signal;HPM_P1;HPM_P2
2023/10/15 00:01:34;;;;;;;5.23;0.40;;;;;;;;;;5076248;28;20083;-69
2023/10/15 00:04:02;;;;;;;8.83;0.60;;;;;;;;;;5076340;28;20054;-68
2023/10/15 00:06:29;;;;;;;2.75;0.30;;;;;;;;;;5076401;28;20367;-69
2023/10/15 00:08:56;;;;;;;3.30;0.20;;;;;;;;;;5076496;28;20049;-70
2023/10/15 00:11:22;;;;;;;3.17;0.30;;;;;;;;;;5076139;28;20044;-69
2023/10/15 00:13:48;;;;;;;6.30;0.50;;;;;;;;;;5074943;28;20045;-70
2023/10/15 00:16:21;;;;;;;5.88;0.57;;;;;;;;;;5057995;28;20087;-69
2023/10/15 00:18:47;;;;;;;6.43;0.30;;;;;;;;;;5074967;28;20074;-68
2023/10/15 00:21:14;;;;;;;4.55;0.40;;;;;;;;;;5075483;28;20504;-69
2023/10/15 00:23:41;;;;;;;3.60;0.30;;;;;;;;;;5075852;28;20127;-69
2023/10/15 00:26:14;;;;;;;8.70;2.30;;;;;;;;;;5075412;28;20063;-69
2023/10/15 00:28:40;;;;;;;8.95;1.95;;;;;;;;;;5076203;28;20457;-70
2023/10/15 00:31:11;;;;;;;8.35;2.00;;;;;;;;;;5076184;28;20372;-69
2023/10/15 00:33:37;;;;;;;7.75;1.90;;;;;;;;;;5074732;28;20138;-69
2023/10/15 00:36:04;;;;;;;12.35;1.73;;;;;;;;;;5075460;28;20048;-69
2023/10/15 00:38:30;;;;;;;6.10;1.08;;;;;;;;;;5074929;28;20080;-69
2023/10/15 00:41:09;;;;;;;7.47;1.20;;;;;;;;;;5075132;28;20456;-69
2023/10/15 00:43:35;;;;;;;5.85;1.15;;;;;;;;;;5076829;28;20045;-68
2023/10/15 00:46:03;;;;;;;4.95;0.40;;;;;;;;;;5076054;28;20439;-69
2023/10/15 00:48:33;;;;;;;3.38;0.50;;;;;;;;;;5075303;28;20044;-68
2023/10/15 00:51:00;;;;;;;4.25;0.40;;;;;;;;;;5075924;28;20442;-70
2023/10/15 00:53:27;;;;;;;;;;;;;;;;;;5075378;28;20109;-70
2023/10/15 00:55:53;;;;;;;9.20;0.57;;;;;;;;;;5075147;28;19950;-68
2023/10/15 00:58:31;;;;;;;3.95;0.20;;;;;;;;;;5073311;28;20879;-68
2023/10/15 01:01:00;;;;;;;7.20;0.40;;;;;;;;;;5075369;28;20135;-68
2023/10/15 01:03:37;;;;;;;3.47;0.70;;;;;;;;;;5074835;28;20051;-69
2023/10/15 01:06:05;;;;;;;1.70;0.20;;;;;;;;;;5075139;28;20048;-68
2023/10/15 01:08:35;;;;;;;7.20;0.47;;;;;;;;;;5074537;28;20484;-69
2023/10/15 01:11:11;;;;;;;5.15;0.60;;;;;;;;;;5057149;28;20055;-69
2023/10/15 01:13:40;;;;;;;2.80;0.50;;;;;;;;;;5074776;28;20045;-71
2023/10/15 01:16:08;;;;;;;4.93;0.50;;;;;;;;;;5073537;28;20473;-71
2023/10/15 01:18:38;;;;;;;4.30;0.47;;;;;;;;;;5073135;28;20052;-70
2023/10/15 01:21:09;;;;;;;5.15;0.60;;;;;;;;;;5074471;28;20044;-70
2023/10/15 01:26:17;;;;;;;1.77;0.25;;;;;;;;;;5074393;28;20056;-71
2023/10/15 01:28:49;;;;;;;2.83;0.38;;;;;;;;;;5058149;28;20123;-73
2023/10/15 01:31:15;;;;;;;8.10;0.30;;;;;;;;;;5074583;28;20051;-72
2023/10/15 01:33:49;;;;;;;2.53;0.30;;;;;;;;;;5056540;28;20048;-71
2023/10/15 01:36:20;;;;;;;6.15;0.30;;;;;;;;;;5074682;28;20042;-72
2023/10/15 01:38:46;;;;;;;4.45;0.30;;;;;;;;;;5075194;28;20123;-72
2023/10/15 01:41:18;;;;;;;6.82;0.30;;;;;;;;;;5074461;28;20101;-72
2023/10/15 01:43:49;;;;;;;6.15;0.40;;;;;;;;;;5074596;28;20427;-71
2023/10/15 01:46:39;;;;;;;4.63;0.75;;;;;;;;;;5073567;28;20060;-71
2023/10/15 01:49:08;;;;;;;4.50;0.38;;;;;;;;;;5075158;28;20194;-71
2023/10/15 01:51:39;;;;;;;3.97;0.40;;;;;;;;;;5073778;28;20047;-74
2023/10/15 01:54:15;;;;;;;3.28;0.30;;;;;;;;;;5072957;28;20139;-71
2023/10/15 01:56:44;;;;;;;5.15;0.38;;;;;;;;;;5056056;28;20041;-72
2023/10/15 01:59:12;;;;;;;4.65;0.45;;;;;;;;;;5072553;28;20113;-71
2023/10/15 02:01:41;;;;;;;9.40;0.40;;;;;;;;;;5072927;28;20091;-72
2023/10/15 02:04:22;;;;;;;4.05;0.40;;;;;;;;;;5073822;28;20762;-71
2023/10/15 02:06:51;;;;;;;1.90;0.30;;;;;;;;;;5074045;28;20052;-72
2023/10/15 02:09:21;;;;;;;4.57;0.40;;;;;;;;;;5073571;28;20071;-73
2023/10/15 02:11:48;;;;;;;4.38;0.38;;;;;;;;;;5075126;28;20102;-72
2023/10/15 02:14:22;;;;;;;3.90;0.35;;;;;;;;;;5090571;28;20074;-73
2023/10/15 02:16:51;;;;;;;4.65;0.30;;;;;;;;;;5089597;28;20055;-72
2023/10/15 02:19:34;;;;;;;3.60;0.30;;;;;;;;;;5075373;28;20166;-73
2023/10/15 02:22:07;;;;;;;3.10;0.20;;;;;;;;;;5073680;28;20063;-72
2023/10/15 02:24:34;;;;;;;5.05;0.40;;;;;;;;;;5072700;28;20173;-73
2023/10/15 02:27:11;;;;;;;4.63;0.73;;;;;;;;;;5073868;28;20396;-73
2023/10/15 02:29:37;;;;;;;3.15;0.30;;;;;;;;;;5073499;28;20049;-73
2023/10/15 02:32:08;;;;;;;6.30;0.40;;;;;;;;;;5074183;28;20384;-73
2023/10/15 02:34:40;;;;;;;3.40;0.40;;;;;;;;;;5073115;28;20080;-73
2023/10/15 02:37:13;;;;;;;7.18;0.40;;;;;;;;;;5056002;28;20090;-74
2023/10/15 02:39:44;;;;;;;2.63;0.30;;;;;;;;;;5040805;28;20060;-72
2023/10/15 02:42:10;;;;;;;1.45;0.30;;;;;;;;;;5072940;28;20052;-73
2023/10/15 02:44:38;;;;;;;3.28;0.30;;;;;;;;;;5072501;28;20044;-72
2023/10/15 02:47:19;;;;;;;7.20;0.50;;;;;;;;;;5074464;28;20067;-73
2023/10/15 02:50:03;;;;;;;3.38;0.30;;;;;;;;;;5073372;28;20055;-73
2023/10/15 02:52:44;;;;;;;4.43;0.32;;;;;;;;;;5055226;28;20047;-74
2023/10/15 02:55:26;;;;;;;5.55;0.40;;;;;;;;;;5073141;28;20044;-73
2023/10/15 02:58:00;;;;;;;7.35;0.38;;;;;;;;;;5073155;28;20056;-73
2023/10/15 03:00:32;;;;;;;4.38;0.40;;;;;;;;;;5073587;28;20048;-74
2023/10/15 03:03:06;;;;;;;4.43;0.40;;;;;;;;;;5072407;28;20052;-73
2023/10/15 03:05:38;;;;;;;3.30;0.40;;;;;;;;;;5073458;28;20045;-74
2023/10/15 03:08:04;;;;;;;3.20;0.40;;;;;;;;;;5073840;28;20392;-72
2023/10/15 03:10:45;;;;;;;9.63;0.60;;;;;;;;;;5073575;28;20045;-72
2023/10/15 03:13:14;;;;;;;5.18;0.40;;;;;;;;;;5072411;28;20290;-73
2023/10/15 03:15:49;;;;;;;4.50;0.70;;;;;;;;;;5072991;28;20041;-73
2023/10/15 03:18:24;;;;;;;2.63;0.30;;;;;;;;;;5073164;28;20480;-74
2023/10/15 03:21:15;;;;;;;5.60;0.40;;;;;;;;;;5073400;28;20048;-72
2023/10/15 03:23:39;;;;;;;;;;;;;;;;;;5074261;28;20503;-73
2023/10/15 03:26:05;;;;;;;6.20;0.60;;;;;;;;;;5078056;28;20006;-74
2023/10/15 03:28:34;;;;;;;3.50;0.40;;;;;;;;;;5078666;28;20053;-73
2023/10/15 03:31:00;;;;;;;7.30;0.52;;;;;;;;;;5089659;28;20104;-73
2023/10/15 03:33:30;;;;;;;7.13;1.00;;;;;;;;;;5088354;28;20044;-74
2023/10/15 03:36:03;;;;;;;2.60;0.50;;;;;;;;;;5077580;28;20105;-74
2023/10/15 03:38:33;;;;;;;5.20;0.50;;;;;;;;;;5075373;28;20552;-73
2023/10/15 03:41:17;;;;;;;5.20;0.50;;;;;;;;;;5075832;28;20052;-72
2023/10/15 03:43:46;;;;;;;6.35;0.50;;;;;;;;;;5058949;28;20135;-72
2023/10/15 03:46:25;;;;;;;6.28;1.45;;;;;;;;;;5059755;28;20056;-74
2023/10/15 03:48:53;;;;;;;5.22;0.50;;;;;;;;;;5075710;28;20090;-74
2023/10/15 03:51:23;;;;;;;6.22;0.60;;;;;;;;;;5058975;28;20048;-74
2023/10/15 03:53:49;;;;;;;4.55;0.40;;;;;;;;;;5059194;28;20041;-73
2023/10/15 03:56:28;;;;;;;8.85;0.50;;;;;;;;;;5076876;28;20084;-73
2023/10/15 03:58:55;;;;;;;5.13;1.17;;;;;;;;;;5076853;28;20056;-73
2023/10/15 04:01:22;;;;;;;6.18;0.70;;;;;;;;;;5076239;28;20052;-73
2023/10/15 04:03:49;;;;;;;6.97;0.70;;;;;;;;;;5075533;28;20055;-73
2023/10/15 04:06:16;;;;;;;3.13;0.47;;;;;;;;;;5075150;28;20051;-71
2023/10/15 04:11:29;;;;;;;8.90;0.60;;;;;;;;;;5075686;28;20425;-74
2023/10/15 04:13:57;;;;;;;5.63;0.57;;;;;;;;;;5074833;28;20056;-73
2023/10/15 04:16:26;;;;;;;;;;;;;;;;;;5076109;28;20483;-73
2023/10/15 04:18:52;;;;;;;4.70;0.80;;;;;;;;;;5076030;28;20050;-74
2023/10/15 04:21:20;;;;;;;5.00;0.60;;;;;;;;;;5074914;28;20396;-72
2023/10/15 04:23:49;;;;;;;6.22;0.50;;;;;;;;;;5074721;28;20044;-74
2023/10/15 04:26:22;;;;;;;4.38;0.77;;;;;;;;;;5075899;28;20041;-73
2023/10/15 04:28:52;;;;;;;5.35;0.45;;;;;;;;;;5075811;28;20055;-73
2023/10/15 04:31:22;;;;;;;5.70;1.13;;;;;;;;;;5074729;28;20045;-74
2023/10/15 04:33:54;;;;;;;3.47;0.50;;;;;;;;;;5075615;28;20041;-74
2023/10/15 04:36:22;;;;;;;5.25;0.50;;;;;;;;;;5073920;28;20078;-74
2023/10/15 04:39:05;;;;;;;2.65;0.40;;;;;;;;;;5075600;28;20459;-73
2023/10/15 04:41:34;;;;;;;6.10;0.52;;;;;;;;;;5075335;28;20090;-73
2023/10/15 04:44:03;;;;;;;8.88;0.70;;;;;;;;;;5074707;28;20507;-74
2023/10/15 04:46:30;;;;;;;10.45;0.70;;;;;;;;;;5086704;28;20040;-73
2023/10/15 04:48:58;;;;;;;7.60;0.60;;;;;;;;;;5091968;28;20049;-72
2023/10/15 04:51:38;;;;;;;7.13;0.70;;;;;;;;;;5078544;28;20053;-74
2023/10/15 04:54:04;;;;;;;5.30;0.65;;;;;;;;;;5076882;28;20506;-73
2023/10/15 04:56:32;;;;;;;6.45;0.50;;;;;;;;;;5074448;28;20049;-73
2023/10/15 04:58:58;;;;;;;7.65;1.38;;;;;;;;;;5075604;28;20056;-72
2023/10/15 05:01:24;;;;;;;4.57;0.50;;;;;;;;;;5076203;28;20063;-74
2023/10/15 05:03:50;;;;;;;6.78;0.60;;;;;;;;;;5073838;28;20049;-73
2023/10/15 05:06:16;;;;;;;7.38;0.47;;;;;;;;;;5074042;28;20050;-73
2023/10/15 05:08:47;;;;;;;3.55;0.40;;;;;;;;;;5075330;28;20370;-73
2023/10/15 05:11:13;;;;;;;3.95;0.50;;;;;;;;;;5058140;28;20044;-73
2023/10/15 05:13:42;;;;;;;12.60;1.37;;;;;;;;;;5074946;28;20055;-73
2023/10/15 05:16:09;;;;;;;6.47;0.60;;;;;;;;;;5075139;28;20036;-73
2023/10/15 05:18:35;;;;;;;10.32;0.70;;;;;;;;;;5056846;28;20056;-74
2023/10/15 05:21:01;;;;;;;10.10;0.60;;;;;;;;;;5073952;28;20055;-71
2023/10/15 05:23:28;;;;;;;3.78;0.77;;;;;;;;;;5057060;28;20102;-72
2023/10/15 05:25:57;;;;;;;10.55;0.85;;;;;;;;;;5074454;28;20058;-73
2023/10/15 05:28:23;;;;;;;6.53;0.60;;;;;;;;;;5056895;28;20098;-71
2023/10/15 05:30:50;;;;;;;5.95;1.17;;;;;;;;;;5073767;28;20385;-72
2023/10/15 05:33:16;;;;;;;9.23;0.70;;;;;;;;;;5074391;28;20040;-72
2023/10/15 05:35:49;;;;;;;9.93;0.80;;;;;;;;;;5074129;28;20048;-72
2023/10/15 05:38:16;;;;;;;7.70;0.77;;;;;;;;;;5073144;28;20049;-71
2023/10/15 05:40:44;;;;;;;7.97;0.70;;;;;;;;;;5072950;28;20444;-73
2023/10/15 05:43:10;;;;;;;3.80;0.50;;;;;;;;;;5073306;28;20049;-72
2023/10/15 05:45:37;;;;;;;12.52;0.90;;;;;;;;;;5072990;28;20045;-72
2023/10/15 05:48:03;;;;;;;10.27;1.20;;;;;;;;;;5072434;28;20105;-72
2023/10/15 05:50:29;;;;;;;5.82;0.73;;;;;;;;;;5072741;28;20564;-72
2023/10/15 05:52:55;;;;;;;8.00;0.40;;;;;;;;;;5056692;28;20075;-72
2023/10/15 05:55:21;;;;;;;5.55;0.40;;;;;;;;;;5073728;28;20475;-72
2023/10/15 05:57:48;;;;;;;6.95;0.63;;;;;;;;;;5056003;28;20044;-71
2023/10/15 06:00:17;;;;;;;7.68;0.95;;;;;;;;;;5056395;28;20049;-75
2023/10/15 06:02:46;;;;;;;12.60;0.85;;;;;;;;;;5074542;28;20411;-72
2023/10/15 06:05:14;;;;;;;9.45;0.77;;;;;;;;;;5075115;28;20040;-72
2023/10/15 06:07:42;;;;;;;5.15;0.50;;;;;;;;;;5073417;28;20063;-71
2023/10/15 06:10:11;;;;;;;3.33;0.30;;;;;;;;;;5073374;28;20493;-72
2023/10/15 06:12:37;;;;;;;4.43;0.30;;;;;;;;;;5073453;28;20041;-73
2023/10/15 06:15:04;;;;;;;4.57;0.32;;;;;;;;;;5073588;28;20123;-74
2023/10/15 06:17:31;;;;;;;9.60;0.45;;;;;;;;;;5072667;28;20044;-73
2023/10/15 06:19:57;;;;;;;5.13;0.32;;;;;;;;;;5073837;28;20126;-73
2023/10/15 06:22:23;;;;;;;7.15;0.43;;;;;;;;;;5073716;28;20058;-74
2023/10/15 06:24:49;;;;;;;6.13;0.45;;;;;;;;;;5073701;28;20141;-72
2023/10/15 06:27:18;;;;;;;2.23;0.30;;;;;;;;;;5072207;28;20055;-75
2023/10/15 06:29:44;;;;;;;4.13;0.60;;;;;;;;;;5072595;28;20088;-74
2023/10/15 06:32:13;;;;;;;3.08;0.30;;;;;;;;;;5056730;28;20055;-73
2023/10/15 06:34:39;;;;;;;3.00;0.35;;;;;;;;;;5073205;28;20040;-74
2023/10/15 06:37:09;;;;;;;8.55;0.80;;;;;;;;;;5055475;28;20041;-72
2023/10/15 06:39:35;;;;;;;6.32;0.28;;;;;;;;;;5073417;28;20044;-72
2023/10/15 06:42:01;;;;;;;1.90;0.20;;;;;;;;;;5071880;28;20086;-70
2023/10/15 06:44:27;;;;;;;3.13;0.20;;;;;;;;;;5073431;28;20601;-70
2023/10/15 06:46:54;;;;;;;3.70;0.20;;;;;;;;;;5072068;28;20079;-69
2023/10/15 06:49:20;;;;;;;5.00;0.30;;;;;;;;;;5073239;28;20049;-70
2023/10/15 06:51:46;;;;;;;4.35;0.25;;;;;;;;;;5073104;28;20291;-70
2023/10/15 06:54:12;;;;;;;4.32;0.20;;;;;;;;;;5073482;28;20389;-69
2023/10/15 06:56:39;;;;;;;3.38;0.30;;;;;;;;;;5055481;28;20048;-70
2023/10/15 06:59:05;;;;;;;1.23;0.10;;;;;;;;;;5078715;28;20063;-70
2023/10/15 07:01:31;;;;;;;4.70;0.20;;;;;;;;;;5080337;28;20052;-70
2023/10/15 07:03:57;;;;;;;4.13;0.47;;;;;;;;;;5078635;28;20040;-69
2023/10/15 07:06:24;;;;;;;4.30;0.40;;;;;;;;;;5061902;28;20472;-70
2023/10/15 07:08:50;;;;;;;4.22;0.73;;;;;;;;;;5062691;28;20304;-70
2023/10/15 07:11:16;;;;;;;4.78;0.20;;;;;;;;;;5078519;28;20052;-70
2023/10/15 07:13:43;;;;;;;2.95;0.20;;;;;;;;;;5078676;28;20079;-71
2023/10/15 07:16:10;;;;;;;3.65;0.20;;;;;;;;;;5079211;28;20098;-71
2023/10/15 07:18:37;;;;;;;4.47;0.30;;;;;;;;;;5081662;28;20056;-71
2023/10/15 07:21:03;;;;;;;5.10;0.20;;;;;;;;;;5082975;28;20049;-70
2023/10/15 07:23:29;;;;;;;4.40;0.20;;;;;;;;;;5078445;28;20052;-70
2023/10/15 07:25:55;;;;;;;3.67;0.20;;;;;;;;;;5079373;28;20040;-72
2023/10/15 07:28:22;;;;;;;3.60;0.20;;;;;;;;;;5079492;28;20131;-71
2023/10/15 07:30:50;;;;;;;3.28;0.30;;;;;;;;;;5079725;28;20105;-71
2023/10/15 07:33:16;;;;;;;2.25;0.20;;;;;;;;;;5078756;28;20044;-71
2023/10/15 07:35:42;;;;;;;8.37;0.30;;;;;;;;;;5078714;28;20438;-71
2023/10/15 07:38:08;;;;;;;1.40;0.30;;;;;;;;;;5078691;28;20052;-71
2023/10/15 07:40:34;;;;;;;8.52;0.30;;;;;;;;;;5061728;28;20404;-72
2023/10/15 07:43:02;;;;;;;2.17;0.13;;;;;;;;;;5079312;28;20050;-71
2023/10/15 07:45:29;;;;;;;3.50;0.20;;;;;;;;;;5079185;28;20052;-69
2023/10/15 07:47:55;;;;;;;;;;;;;;;;;;5078173;28;20083;-70
2023/10/15 07:50:23;;;;;;;2.28;0.30;;;;;;;;;;5078194;28;20337;-68
2023/10/15 07:52:49;;;;;;;3.60;0.40;;;;;;;;;;5079450;28;20135;-70
2023/10/15 07:55:16;;;;;;;4.93;0.50;;;;;;;;;;5078821;28;20484;-69
2023/10/15 07:57:42;;;;;;;4.05;0.30;;;;;;;;;;5079118;28;20080;-70
2023/10/15 08:00:14;;;;;;;4.07;0.32;;;;;;;;;;5079787;28;20431;-70
2023/10/15 08:02:41;;;;;;;8.65;0.80;;;;;;;;;;5078118;28;20047;-70
2023/10/15 08:05:08;;;;;;;4.65;0.60;;;;;;;;;;5079346;28;20154;-72
2023/10/15 08:07:38;;;;;;;5.88;0.60;;;;;;;;;;5077844;28;20507;-71
2023/10/15 08:10:04;;;;;;;6.03;0.50;;;;;;;;;;5077175;28;20529;-72
2023/10/15 08:12:31;;;;;;;6.22;0.68;;;;;;;;;;5074990;28;20140;-71
2023/10/15 08:14:57;;;;;;;6.72;0.50;;;;;;;;;;5059326;28;20054;-71
2023/10/15 08:17:24;;;;;;;4.13;0.43;;;;;;;;;;5076362;28;20526;-73
2023/10/15 08:19:51;;;;;;;7.13;0.50;;;;;;;;;;5075189;28;20131;-71
2023/10/15 08:22:17;;;;;;;13.82;0.85;;;;;;;;;;5058180;28;20665;-71
2023/10/15 08:24:43;;;;;;;8.57;0.63;;;;;;;;;;5058585;28;20127;-72
2023/10/15 08:27:13;;;;;;;7.75;0.60;;;;;;;;;;5075837;28;20064;-72
2023/10/15 08:29:39;;;;;;;7.82;0.80;;;;;;;;;;5075851;28;20373;-71
2023/10/15 08:32:06;;;;;;;14.80;0.50;;;;;;;;;;5076539;28;20040;-71
2023/10/15 08:34:32;;;;;;;9.27;0.47;;;;;;;;;;5081795;28;20346;-72
2023/10/15 08:36:58;;;;;;;11.65;0.50;;;;;;;;;;5089789;28;20076;-72
2023/10/15 08:39:26;;;;;;;8.68;0.40;;;;;;;;;;5081212;28;20040;-73
2023/10/15 08:41:54;;;;;;;8.40;0.70;;;;;;;;;;5076116;28;20080;-73
2023/10/15 08:44:20;;;;;;;10.65;0.47;;;;;;;;;;5076045;28;20048;-72
2023/10/15 08:46:50;;;;;;;4.05;0.35;;;;;;;;;;5075496;28;20043;-74
2023/10/15 08:49:16;;;;;;;8.98;0.43;;;;;;;;;;5075640;28;20132;-71
2023/10/15 08:51:43;;;;;;;8.63;0.60;;;;;;;;;;5074211;28;20299;-73
2023/10/15 08:54:11;;;;;;;4.55;0.40;;;;;;;;;;5075364;28;20282;-74
2023/10/15 08:56:41;;;;;;;8.73;0.50;;;;;;;;;;5075242;28;20048;-74
2023/10/15 08:59:09;;;;;;;8.50;0.30;;;;;;;;;;5073524;28;20059;-73
2023/10/15 09:01:37;;;;;;;1.98;0.20;;;;;;;;;;5075204;28;20098;-75
2023/10/15 09:04:09;;;;;;;9.60;0.80;;;;;;;;;;5073940;28;20040;-74
2023/10/15 09:06:36;;;;;;;4.97;0.38;;;;;;;;;;5075088;28;20104;-74
2023/10/15 09:09:02;;;;;;;13.63;0.55;;;;;;;;;;5075541;28;20373;-73
2023/10/15 09:11:29;;;;;;;7.78;0.85;;;;;;;;;;5074910;28;20125;-69
2023/10/15 09:13:58;;;;;;;15.77;1.70;;;;;;;;;;5075211;28;20043;-74
2023/10/15 09:16:26;;;;;;;7.47;0.52;;;;;;;;;;5074844;28;20036;-73
2023/10/15 09:18:53;;;;;;;12.65;1.23;;;;;;;;;;5075348;28;20055;-73
2023/10/15 09:21:23;;;;;;;11.57;0.65;;;;;;;;;;5072434;28;20390;-72
2023/10/15 09:23:50;;;;;;;8.10;0.32;;;;;;;;;;5074544;28;20460;-73
2023/10/15 09:26:16;;;;;;;14.27;0.63;;;;;;;;;;5073483;28;20098;-73
2023/10/15 09:28:42;;;;;;;7.40;0.30;;;;;;;;;;5107715;28;20384;-72
2023/10/15 09:31:10;;;;;;;12.30;0.57;;;;;;;;;;5074626;28;20279;-72
2023/10/15 09:33:36;;;;;;;;;;;;;;;;;;5074963;28;20490;-73
2023/10/15 09:36:05;;;;;;;8.57;0.50;;;;;;;;;;5074630;28;19916;-72
2023/10/15 09:38:32;;;;;;;6.18;0.75;;;;;;;;;;5073301;28;20044;-74
2023/10/15 09:41:01;;;;;;;7.40;0.70;;;;;;;;;;5056832;28;20067;-71
2023/10/15 09:43:27;;;;;;;6.63;0.40;;;;;;;;;;5074121;28;20467;-72
2023/10/15 09:45:57;;;;;;;7.70;0.95;;;;;;;;;;5056715;28;20048;-72
2023/10/15 09:48:24;;;;;;;6.88;0.50;;;;;;;;;;5040340;28;20483;-71
2023/10/15 09:50:52;;;;;;;7.15;0.55;;;;;;;;;;5057509;28;20061;-72
2023/10/15 09:53:21;;;;;;;9.60;0.47;;;;;;;;;;5081889;28;20044;-71
2023/10/15 09:55:49;;;;;;;12.00;0.80;;;;;;;;;;5090766;28;20074;-71
2023/10/15 09:58:16;;;;;;;11.20;0.70;;;;;;;;;;5081145;28;20060;-71
2023/10/15 10:03:37;;;;;;;7.40;0.40;;;;;;;;;;5073259;28;20044;-71
2023/10/15 10:06:22;;;;;;;10.95;0.50;;;;;;;;;;5072714;28;20048;-72
2023/10/15 10:08:55;;;;;;;5.63;0.43;;;;;;;;;;5073045;28;20376;-72
2023/10/15 10:11:34;;;;;;;22.85;0.85;;;;;;;;;;5072645;28;20044;-71
2023/10/15 10:14:23;;;;;;;5.22;0.30;;;;;;;;;;5072753;28;20054;-72
2023/10/15 10:16:50;;;;;;;11.23;0.57;;;;;;;;;;5073800;28;20044;-72
2023/10/15 10:19:17;;;;;;;7.90;0.85;;;;;;;;;;5073748;28;20048;-72
2023/10/15 10:21:47;;;;;;;5.80;0.35;;;;;;;;;;5073518;28;20044;-71
2023/10/15 10:24:16;;;;;;;6.93;0.65;;;;;;;;;;5056128;28;20102;-72
2023/10/15 10:26:42;;;;;;;10.73;0.70;;;;;;;;;;5072471;28;20106;-71
2023/10/15 10:29:09;;;;;;;9.95;0.63;;;;;;;;;;5074248;28;20364;-69
2023/10/15 10:31:39;;;;;;;9.43;0.43;;;;;;;;;;5073523;28;20047;-71
2023/10/15 10:34:05;;;;;;;10.45;0.40;;;;;;;;;;5073395;28;20045;-69
2023/10/15 10:36:31;;;;;;;12.30;0.65;;;;;;;;;;5073586;28;20135;-70
2023/10/15 10:39:00;;;;;;;8.40;0.55;;;;;;;;;;5072830;28;20041;-70
2023/10/15 10:41:38;;;;;;;13.02;0.63;;;;;;;;;;5073420;28;20079;-70
2023/10/15 10:44:30;;;;;;;12.55;0.80;;;;;;;;;;5073281;28;20053;-70
2023/10/15 10:46:56;;;;;;;8.40;1.52;;;;;;;;;;5072454;28;20044;-70
2023/10/15 10:49:38;;;;;;;12.80;0.80;;;;;;;;;;5073001;28;20519;-70
2023/10/15 10:52:23;;;;;;;13.05;0.60;;;;;;;;;;5073624;28;20436;-71
2023/10/15 10:54:49;;;;;;;15.23;0.85;;;;;;;;;;5073926;28;20368;-71
2023/10/15 10:57:20;;;;;;;11.05;0.45;;;;;;;;;;5071975;28;20076;-70
2023/10/15 10:59:46;;;;;;;10.32;0.60;;;;;;;;;;5073933;28;20063;-69
2023/10/15 11:02:15;;;;;;;9.40;0.70;;;;;;;;;;5073471;28;20127;-70
2023/10/15 11:04:42;;;;;;;10.65;0.93;;;;;;;;;;5073457;28;20058;-71
2023/10/15 11:07:09;;;;;;;8.73;0.40;;;;;;;;;;5073637;28;20051;-70
2023/10/15 11:09:38;;;;;;;5.72;0.70;;;;;;;;;;5074303;28;20088;-69
2023/10/15 11:12:06;;;;;;;8.35;0.50;;;;;;;;;;5073321;28;20040;-70
2023/10/15 11:14:33;;;;;;;7.60;0.40;;;;;;;;;;5071721;28;20053;-71
2023/10/15 11:16:59;;;;;;;8.77;0.30;;;;;;;;;;5072798;28;20051;-70
2023/10/15 11:19:26;;;;;;;4.05;0.50;;;;;;;;;;5072763;28;20133;-72
2023/10/15 11:21:52;;;;;;;11.05;1.52;;;;;;;;;;5073007;28;20048;-69
2023/10/15 11:24:20;;;;;;;6.82;0.40;;;;;;;;;;5071946;28;20044;-70
2023/10/15 11:26:46;;;;;;;;;;;;;;;;;;5073295;28;20048;-69
2023/10/15 11:29:13;;;;;;;4.30;0.30;;;;;;;;;;5072481;28;19920;-70
2023/10/15 11:31:45;;;;;;;7.90;0.40;;;;;;;;;;5073097;28;20066;-69
2023/10/15 11:34:14;;;;;;;9.40;0.95;;;;;;;;;;5072837;28;20044;-71
2023/10/15 11:36:43;;;;;;;3.60;0.43;;;;;;;;;;5072270;28;20041;-71
2023/10/15 11:39:25;;;;;;;7.15;0.52;;;;;;;;;;5071632;28;20045;-71
2023/10/15 11:41:52;;;;;;;10.90;0.82;;;;;;;;;;5072951;28;20048;-70
2023/10/15 11:44:25;;;;;;;;;;;;;;;;;;5072391;28;20044;-71
2023/10/15 11:46:51;;;;;;;6.53;0.70;;;;;;;;;;5076815;28;19924;-71
2023/10/15 11:49:22;;;;;;;10.05;0.50;;;;;;;;;;5075301;28;20048;-69
2023/10/15 11:51:49;;;;;;;6.82;0.57;;;;;;;;;;5077046;28;20064;-70
2023/10/15 11:54:16;;;;;;;4.22;0.20;;;;;;;;;;5075226;28;20045;-70
2023/10/15 11:56:42;;;;;;;;;;;;;;;;;;5076393;28;20540;-70
2023/10/15 11:59:08;;;;;;;8.63;0.60;;;;;;;;;;5076159;28;20013;-71
2023/10/15 12:01:35;;;;;;;10.05;0.90;;;;;;;;;;5075510;28;20055;-71
2023/10/15 12:04:01;;;;;;;;;;;;;;;;;;5075285;28;20171;-71
2023/10/15 12:06:28;;;;;;;7.32;0.32;;;;;;;;;;5075146;28;19924;-71
2023/10/15 12:08:58;;;;;;;8.05;0.60;;;;;;;;;;5057977;28;20450;-71
2023/10/15 12:11:25;;;;;;;10.77;0.95;;;;;;;;;;5075973;28;20056;-70
2023/10/15 12:13:51;;;;;;;;;;;;;;;;;;5075250;28;20049;-72
2023/10/15 12:16:17;;;;;;;4.43;0.40;;;;;;;;;;5076650;28;19982;-70
2023/10/15 12:18:43;;;;;;;6.88;0.68;;;;;;;;;;5058312;28;20049;-71
2023/10/15 12:21:10;;;;;;;7.03;0.40;;;;;;;;;;5080674;28;20127;-71
2023/10/15 12:23:36;;;;;;;7.05;0.50;;;;;;;;;;5060959;28;20147;-71
2023/10/15 12:26:07;;;;;;;12.77;0.45;;;;;;;;;;5074925;28;20048;-70
2023/10/15 12:28:43;;;;;;;4.68;0.30;;;;;;;;;;5074732;28;20450;-70
2023/10/15 12:31:09;;;;;;;7.53;0.47;;;;;;;;;;5075775;28;20167;-70
2023/10/15 12:33:35;;;;;;;5.43;0.30;;;;;;;;;;5075045;28;20173;-72
2023/10/15 12:36:02;;;;;;;8.00;0.50;;;;;;;;;;5074386;28;20045;-71
2023/10/15 12:38:28;;;;;;;13.23;1.58;;;;;;;;;;5075441;28;20481;-71
2023/10/15 12:40:55;;;;;;;10.50;0.60;;;;;;;;;;5058691;28;20048;-70
2023/10/15 12:43:21;;;;;;;8.75;0.63;;;;;;;;;;5076018;28;20048;-70
2023/10/15 12:45:52;;;;;;;12.80;0.60;;;;;;;;;;5075870;28;20097;-70
2023/10/15 12:48:19;;;;;;;11.20;0.60;;;;;;;;;;5075850;28;20131;-69
2023/10/15 12:50:45;;;;;;;10.18;0.50;;;;;;;;;;5073872;28;20048;-71
2023/10/15 12:53:11;;;;;;;7.93;0.77;;;;;;;;;;5075196;28;20048;-69
2023/10/15 12:55:38;;;;;;;8.93;0.80;;;;;;;;;;5073632;28;20070;-70
2023/10/15 12:58:04;;;;;;;7.07;0.63;;;;;;;;;;5074954;28;20060;-71
2023/10/15 13:00:32;;;;;;;9.07;1.30;;;;;;;;;;5074917;28;20052;-70
2023/10/15 13:02:58;;;;;;;8.52;0.60;;;;;;;;;;5075074;28;20056;-70
2023/10/15 13:05:27;;;;;;;9.60;0.60;;;;;;;;;;5074098;28;20117;-70
2023/10/15 13:07:54;;;;;;;7.38;0.50;;;;;;;;;;5057854;28;20299;-71
2023/10/15 13:10:20;;;;;;;4.60;0.57;;;;;;;;;;5075563;28;20048;-70
2023/10/15 13:12:50;;;;;;;10.85;0.60;;;;;;;;;;5074575;28;20033;-70
2023/10/15 13:15:21;;;;;;;18.58;0.70;;;;;;;;;;5075093;28;20052;-72
2023/10/15 13:17:48;;;;;;;8.10;0.40;;;;;;;;;;5075378;28;20044;-73
2023/10/15 13:20:14;;;;;;;11.48;0.47;;;;;;;;;;5074843;28;20040;-71
2023/10/15 13:22:42;;;;;;;6.18;0.50;;;;;;;;;;5073457;28;20045;-70
2023/10/15 13:25:08;;;;;;;2.75;0.38;;;;;;;;;;5056623;28;20049;-69
2023/10/15 13:27:35;;;;;;;9.60;1.10;;;;;;;;;;5073722;28;20140;-70
2023/10/15 13:30:01;;;;;;;7.93;0.60;;;;;;;;;;5074606;28;20048;-71
2023/10/15 13:32:27;;;;;;;5.60;0.60;;;;;;;;;;5075249;28;20044;-72
2023/10/15 13:34:54;;;;;;;14.23;0.85;;;;;;;;;;5080222;28;20558;-71
2023/10/15 13:37:20;;;;;;;6.20;0.60;;;;;;;;;;5079256;28;20514;-72
2023/10/15 13:39:49;;;;;;;5.55;0.30;;;;;;;;;;5074436;28;20055;-70
2023/10/15 13:42:16;;;;;;;5.47;0.70;;;;;;;;;;5073533;28;20060;-70
2023/10/15 13:44:42;;;;;;;7.95;0.70;;;;;;;;;;5056633;28;20048;-72
2023/10/15 13:47:10;;;;;;;13.10;0.70;;;;;;;;;;5074136;28;20337;-70
2023/10/15 13:49:36;;;;;;;4.95;0.60;;;;;;;;;;5074035;28;20044;-70
2023/10/15 13:52:03;;;;;;;6.90;0.70;;;;;;;;;;5074010;28;20083;-70
2023/10/15 13:54:30;;;;;;;7.47;0.73;;;;;;;;;;5074151;28;20040;-71
2023/10/15 13:56:57;;;;;;;8.70;0.68;;;;;;;;;;5074047;28;20034;-72
2023/10/15 13:59:24;;;;;;;;;;;;;;;;;;5075168;28;20068;-69
2023/10/15 14:01:50;;;;;;;3.92;0.22;;;;;;;;;;5072832;28;20375;-70
2023/10/15 14:04:17;;;;;;;15.48;0.55;;;;;;;;;;5072755;28;20052;-70
2023/10/15 14:06:44;;;;;;;8.13;0.45;;;;;;;;;;5073409;28;20123;-69
2023/10/15 14:09:14;;;;;;;8.63;0.40;;;;;;;;;;5072653;28;20054;-71
2023/10/15 14:11:41;;;;;;;7.80;0.50;;;;;;;;;;5073693;28;20048;-69
2023/10/15 14:14:07;;;;;;;6.93;0.50;;;;;;;;;;5072782;28;20056;-71
2023/10/15 14:16:33;;;;;;;10.05;0.50;;;;;;;;;;5073479;28;20040;-69
2023/10/15 14:19:00;;;;;;;8.27;0.40;;;;;;;;;;5073394;28;20055;-70
2023/10/15 14:21:27;;;;;;;7.85;0.60;;;;;;;;;;5073591;28;20604;-70
2023/10/15 14:23:53;;;;;;;8.80;0.43;;;;;;;;;;5072553;28;20044;-69
2023/10/15 14:26:21;;;;;;;5.95;0.50;;;;;;;;;;5073544;28;20097;-70
2023/10/15 14:28:50;;;;;;;6.95;0.40;;;;;;;;;;5073329;28;20048;-69
2023/10/15 14:31:17;;;;;;;6.63;0.30;;;;;;;;;;5073750;28;20150;-70
2023/10/15 14:33:43;;;;;;;5.80;0.40;;;;;;;;;;5072961;28;20526;-70
2023/10/15 14:36:09;;;;;;;9.35;0.50;;;;;;;;;;5073174;28;20051;-71
2023/10/15 14:38:36;;;;;;;7.63;0.57;;;;;;;;;;5072398;28;20045;-70
2023/10/15 14:41:02;;;;;;;6.20;0.40;;;;;;;;;;5072447;28;20048;-72
2023/10/15 14:43:28;;;;;;;5.75;0.50;;;;;;;;;;5073190;28;20365;-71
2023/10/15 14:45:56;;;;;;;6.40;0.40;;;;;;;;;;5073011;28;20165;-74
2023/10/15 14:48:25;;;;;;;7.18;0.30;;;;;;;;;;5077401;28;20052;-71
2023/10/15 14:50:51;;;;;;;6.75;0.60;;;;;;;;;;5074245;28;20427;-71
2023/10/15 14:53:17;;;;;;;14.07;1.38;;;;;;;;;;5073843;28;20473;-70
2023/10/15 14:55:45;;;;;;;8.73;0.50;;;;;;;;;;5071954;28;20049;-70
2023/10/15 14:58:11;;;;;;;;;;;;;;;;;;5071868;28;20053;-69
2023/10/15 15:00:37;;;;;;;7.10;0.40;;;;;;;;;;5072385;28;19920;-70
2023/10/15 15:03:04;;;;;;;2.30;0.30;;;;;;;;;;5073038;28;20083;-68